Time;durP1;ratioP1;P1;durP2;ratioP2;P2;SDS_P1;SDS_P2;PMS_P1;PMS_P2;Temp;Humidity;BMP_temperature;BMP_pressure;BME280_temperature;BME280_humidity;BME280_pressure;Samples;Min_cycle;Max_cycle;Signal;HPM_P1;HPM_P2
2022/05/18 00:00:51;;;;;;;9.10;6.37;;;21.20;47.90;;;;;;5052194;28;20465;-35
2022/05/18 00:03:21;;;;;;;7.00;5.30;;;21.20;48.00;;;;;;5052441;28;20436;-35
2022/05/18 00:05:47;;;;;;;14.23;6.37;;;21.10;48.10;;;;;;5052284;28;20402;-35
2022/05/18 00:08:13;;;;;;;7.17;5.67;;;21.10;48.10;;;;;;5052216;28;20787;-35
2022/05/18 00:10:42;;;;;;;9.05;6.05;;;21.10;48.00;;;;;;5052268;28;20408;-35
2022/05/18 00:13:09;;;;;;;7.50;6.03;;;21.00;48.00;;;;;;5052223;28;20552;-35
2022/05/18 00:15:35;;;;;;;7.37;6.17;;;21.00;48.10;;;;;;5052243;28;20439;-35
2022/05/18 00:18:00;;;;;;;7.90;5.90;;;20.90;48.10;;;;;;5052037;28;20436;-35
2022/05/18 00:20:27;;;;;;;6.53;5.73;;;20.90;48.90;;;;;;5052238;28;20516;-35
2022/05/18 00:22:55;;;;;;;6.57;4.97;;;20.80;48.10;;;;;;5052285;28;20201;-35
2022/05/18 00:25:27;;;;;;;8.07;6.30;;;20.80;48.20;;;;;;5052150;28;20410;-35
2022/05/18 00:27:53;;;;;;;8.03;7.20;;;20.80;48.30;;;;;;5051736;28;20427;-35
2022/05/18 00:30:22;;;;;;;6.13;5.53;;;20.80;48.30;;;;;;5052234;28;20419;-35
2022/05/18 00:32:48;;;;;;;7.60;6.90;;;20.80;48.20;;;;;;5052224;28;20416;-35
2022/05/18 00:35:14;;;;;;;8.00;6.10;;;20.80;48.30;;;;;;5052149;28;20426;-35
2022/05/18 00:37:40;;;;;;;7.23;6.33;;;20.80;48.10;;;;;;5051770;28;20481;-35
2022/05/18 00:40:09;;;;;;;6.50;5.90;;;20.80;48.10;;;;;;5051944;28;20463;-35
2022/05/18 00:42:35;;;;;;;9.40;6.00;;;20.80;47.90;;;;;;5051709;28;20423;-35
2022/05/18 00:45:00;;;;;;;6.28;5.68;;;20.80;47.80;;;;;;5051881;28;20915;-35
2022/05/18 00:47:26;;;;;;;7.20;5.90;;;20.80;47.90;;;;;;5051789;28;20236;-34
2022/05/18 00:49:58;;;;;;;6.23;5.50;;;20.70;47.70;;;;;;5052007;28;20169;-35
2022/05/18 00:55:02;;;;;;;7.40;6.10;;;20.70;47.90;;;;;;5089763;28;20295;-31
2022/05/18 00:57:37;;;;;;;7.03;6.33;;;20.60;47.70;;;;;;5095667;28;20168;-31
2022/05/18 01:00:12;;;;;;;6.22;5.63;;;20.50;47.70;;;;;;5096094;28;20453;-31
2022/05/18 01:02:42;;;;;;;5.93;5.30;;;20.50;47.90;;;;;;5095930;28;20181;-30
2022/05/18 01:05:11;;;;;;;9.23;6.45;;;20.50;48.00;;;;;;5095867;28;20394;-32
2022/05/18 01:07:43;;;;;;;6.43;5.47;;;20.50;47.90;;;;;;5095891;28;20258;-31
2022/05/18 01:10:10;;;;;;;7.20;6.37;;;20.50;48.00;;;;;;5096186;28;20430;-31
2022/05/18 01:12:35;;;;;;;9.73;5.68;;;20.40;47.90;;;;;;5095850;28;20405;-32
2022/05/18 01:15:05;;;;;;;7.47;6.10;;;20.40;47.80;;;;;;5095736;28;20172;-31
2022/05/18 01:17:34;;;;;;;8.25;6.13;;;20.40;47.90;;;;;;5095509;28;20682;-32
2022/05/18 01:20:04;;;;;;;10.00;6.30;;;20.30;47.90;;;;;;5095476;28;20215;-30
2022/05/18 01:22:57;;;;;;;15.25;7.15;;;20.30;47.70;;;;;;5095565;28;20455;-31
2022/05/18 01:25:53;;;;;;;7.70;6.90;;;20.30;47.70;;;;;;5095566;28;20183;-31
2022/05/18 01:28:23;;;;;;;7.00;6.30;;;20.30;47.80;;;;;;5095226;28;20250;-31
2022/05/18 01:30:48;;;;;;;6.30;5.70;;;20.20;47.70;;;;;;5094198;28;20459;-32
2022/05/18 01:33:17;;;;;;;6.50;5.80;;;20.20;47.70;;;;;;5095290;28;20418;-32
2022/05/18 01:35:45;;;;;;;6.78;5.57;;;20.20;47.80;;;;;;5095329;28;20883;-31
2022/05/18 01:38:15;;;;;;;6.78;6.00;;;20.10;47.80;;;;;;5095129;28;20240;-31
2022/05/18 01:41:08;;;;;;;6.63;5.55;;;20.10;48.00;;;;;;5095081;28;20204;-31
2022/05/18 01:43:51;;;;;;;6.53;5.07;;;20.00;48.10;;;;;;5095322;28;20199;-31
2022/05/18 01:46:19;;;;;;;7.45;6.65;;;20.00;48.00;;;;;;5095459;28;20519;-31
2022/05/18 01:48:49;;;;;;;7.65;5.95;;;19.90;48.10;;;;;;5094896;28;20303;-31
2022/05/18 01:51:27;;;;;;;7.88;6.38;;;19.90;48.20;;;;;;5095292;28;20602;-32
2022/05/18 01:53:53;;;;;;;8.27;6.20;;;19.90;48.20;;;;;;5094971;28;20244;-32
2022/05/18 01:56:19;;;;;;;6.27;5.50;;;19.90;48.60;;;;;;5094939;28;20247;-31
2022/05/18 01:58:46;;;;;;;10.80;6.30;;;19.80;48.40;;;;;;5094762;28;20172;-31
2022/05/18 02:01:12;;;;;;;7.90;7.20;;;19.80;48.50;;;;;;5094728;28;20333;-31
2022/05/18 02:03:37;;;;;;;9.27;7.37;;;19.80;48.70;;;;;;5094602;28;20291;-31
2022/05/18 02:06:03;;;;;;;8.07;5.60;;;19.80;48.90;;;;;;5094102;28;20406;-31
2022/05/18 02:08:29;;;;;;;8.00;6.37;;;19.70;48.80;;;;;;5094534;28;20172;-31
2022/05/18 02:10:55;;;;;;;6.80;6.20;;;19.70;48.70;;;;;;5094655;28;20175;-31
2022/05/18 02:13:21;;;;;;;6.97;5.85;;;19.70;48.70;;;;;;5094484;28;20223;-31
2022/05/18 02:15:47;;;;;;;8.60;7.70;;;19.70;48.80;;;;;;5094580;28;20164;-31
2022/05/18 02:18:13;;;;;;;7.07;6.25;;;19.70;48.90;;;;;;5094263;28;20662;-31
2022/05/18 02:20:39;;;;;;;9.23;5.60;;;19.70;49.10;;;;;;5094399;28;20203;-31
2022/05/18 02:23:06;;;;;;;8.93;6.75;;;19.60;49.10;;;;;;5094419;28;20253;-31
2022/05/18 02:25:32;;;;;;;5.85;4.75;;;19.60;48.80;;;;;;5094308;28;20570;-32
2022/05/18 02:27:59;;;;;;;7.20;6.40;;;19.60;49.10;;;;;;5094116;28;20528;-32
2022/05/18 02:30:25;;;;;;;8.50;7.13;;;19.60;49.40;;;;;;5094268;28;20203;-32
2022/05/18 02:32:50;;;;;;;6.43;5.10;;;19.50;49.40;;;;;;5094073;28;20219;-31
2022/05/18 02:35:16;;;;;;;6.23;5.63;;;19.50;49.40;;;;;;5094391;28;20168;-31
2022/05/18 02:37:42;;;;;;;7.53;6.15;;;19.50;49.30;;;;;;5094106;28;20168;-32
2022/05/18 02:40:10;;;;;;;7.20;5.47;;;19.50;49.30;;;;;;5093984;28;20714;-31
2022/05/18 02:42:36;;;;;;;7.72;6.97;;;19.50;49.30;;;;;;5093988;28;20647;-31
2022/05/18 02:45:02;;;;;;;8.10;6.60;;;19.40;49.20;;;;;;5093979;28;20300;-31
2022/05/18 02:47:28;;;;;;;6.15;5.55;;;19.40;49.10;;;;;;5094029;28;20168;-31
2022/05/18 02:49:54;;;;;;;7.90;5.53;;;19.40;49.20;;;;;;5094011;28;20172;-31
2022/05/18 02:52:19;;;;;;;7.50;5.47;;;19.40;49.30;;;;;;5093934;28;20687;-31
2022/05/18 02:57:31;;;;;;;6.22;5.38;;;19.30;49.10;;;;;;5094330;28;20522;-31
2022/05/18 02:59:57;;;;;;;7.10;5.78;;;19.30;49.20;;;;;;5093816;28;20222;-31
2022/05/18 03:02:22;;;;;;;7.27;6.50;;;19.30;49.10;;;;;;5093684;28;20164;-31
2022/05/18 03:04:48;;;;;;;8.60;6.30;;;19.20;49.10;;;;;;5093597;28;20433;-31
2022/05/18 03:07:14;;;;;;;8.27;6.67;;;19.20;49.10;;;;;;5093336;28;20168;-32
2022/05/18 03:09:39;;;;;;;6.93;6.27;;;19.20;49.10;;;;;;5093483;28;20171;-31
2022/05/18 03:12:05;;;;;;;7.23;5.50;;;19.20;49.10;;;;;;5093414;28;20232;-31
2022/05/18 03:14:31;;;;;;;7.50;5.40;;;19.10;49.10;;;;;;5093554;28;20202;-31
2022/05/18 03:16:59;;;;;;;7.97;6.87;;;19.10;50.10;;;;;;5093178;28;20194;-31
2022/05/18 03:19:25;;;;;;;8.13;6.40;;;19.10;49.40;;;;;;5092234;28;20446;-31
2022/05/18 03:24:36;;;;;;;8.60;6.32;;;19.10;49.30;;;;;;5093390;28;20253;-32
2022/05/18 03:27:02;;;;;;;7.28;5.65;;;19.00;49.20;;;;;;5092935;28;20190;-32
2022/05/18 03:29:27;;;;;;;7.50;6.68;;;19.00;49.30;;;;;;5093266;28;20179;-32
2022/05/18 03:31:53;;;;;;;6.33;5.70;;;18.90;49.30;;;;;;5093121;28;20168;-32
2022/05/18 03:34:19;;;;;;;16.53;7.20;;;18.90;49.30;;;;;;5093125;28;20188;-32
2022/05/18 03:36:45;;;;;;;7.80;6.27;;;18.90;49.40;;;;;;5092986;28;20932;-32
2022/05/18 03:39:11;;;;;;;12.40;6.40;;;18.80;49.20;;;;;;5092783;28;20405;-32
2022/05/18 03:41:37;;;;;;;6.78;6.07;;;18.90;49.40;;;;;;5092923;28;20229;-32
2022/05/18 03:44:07;;;;;;;7.60;6.33;;;18.80;49.30;;;;;;5092751;28;20663;-32
2022/05/18 03:46:33;;;;;;;7.97;5.60;;;18.80;49.40;;;;;;5092821;28;20191;-32
2022/05/18 03:48:59;;;;;;;6.53;5.85;;;18.80;49.50;;;;;;5092556;28;20178;-32
2022/05/18 03:51:25;;;;;;;8.73;6.20;;;18.80;49.50;;;;;;5092790;28;20267;-32
2022/05/18 03:53:51;;;;;;;5.93;5.20;;;18.80;49.30;;;;;;5092412;28;20200;-32
2022/05/18 03:56:18;;;;;;;7.95;5.65;;;18.80;49.30;;;;;;5092710;28;20172;-32
2022/05/18 03:58:43;;;;;;;6.90;6.18;;;18.80;49.30;;;;;;5092623;28;20173;-32
2022/05/18 04:01:10;;;;;;;10.40;6.87;;;18.80;49.20;;;;;;5092510;28;20207;-32
2022/05/18 04:03:45;;;;;;;6.65;5.95;;;18.80;49.30;;;;;;5092543;28;20196;-32
2022/05/18 04:06:12;;;;;;;9.48;6.05;;;18.80;49.30;;;;;;5092574;28;20175;-32
2022/05/18 04:08:38;;;;;;;8.52;6.97;;;18.80;49.50;;;;;;5092180;28;20249;-32
2022/05/18 04:11:05;;;;;;;8.07;5.80;;;18.80;49.50;;;;;;5091231;28;20225;-32
2022/05/18 04:13:32;;;;;;;8.52;7.50;;;18.80;49.40;;;;;;5092321;28;20430;-32
2022/05/18 04:15:58;;;;;;;7.88;7.07;;;18.80;49.40;;;;;;5092407;28;20176;-32
2022/05/18 04:18:24;;;;;;;6.15;5.43;;;18.90;49.50;;;;;;5092147;28;20168;-31
2022/05/18 04:20:52;;;;;;;8.73;7.15;;;18.90;50.20;;;;;;5092478;28;20287;-31
2022/05/18 04:23:19;;;;;;;7.82;7.03;;;18.90;50.00;;;;;;5092088;28;20188;-31
2022/05/18 04:25:45;;;;;;;8.15;6.10;;;19.00;49.30;;;;;;5092244;28;20197;-31
2022/05/18 04:28:14;;;;;;;11.73;6.68;;;19.00;49.30;;;;;;5092104;28;20164;-31
2022/05/18 04:30:45;;;;;;;8.68;6.72;;;19.10;49.30;;;;;;5091790;28;20229;-29
2022/05/18 04:33:13;;;;;;;10.23;7.80;;;19.10;49.30;;;;;;5092004;28;20196;-31
2022/05/18 04:35:40;;;;;;;11.05;5.95;;;19.10;49.00;;;;;;5092011;28;20187;-32
2022/05/18 04:38:05;;;;;;;8.68;7.55;;;19.10;48.90;;;;;;5092065;28;20179;-32
2022/05/18 04:40:32;;;;;;;8.47;7.23;;;19.10;48.80;;;;;;5092074;28;20278;-32
2022/05/18 04:42:57;;;;;;;8.00;7.30;;;19.10;48.90;;;;;;5091969;28;20679;-32
2022/05/18 04:45:24;;;;;;;8.27;7.33;;;19.10;48.80;;;;;;5091980;28;20193;-32
2022/05/18 04:47:50;;;;;;;9.95;6.65;;;19.20;48.50;;;;;;5091753;28;20172;-32
2022/05/18 04:50:16;;;;;;;11.30;7.13;;;19.30;48.50;;;;;;5091886;28;20257;-32
2022/05/18 04:52:42;;;;;;;7.47;6.53;;;19.30;48.20;;;;;;5091754;28;20164;-32
2022/05/18 04:55:09;;;;;;;10.13;6.13;;;19.30;48.10;;;;;;5092364;28;20179;-32
2022/05/18 04:57:35;;;;;;;8.35;6.53;;;19.40;48.20;;;;;;5091650;28;20168;-32
2022/05/18 05:00:01;;;;;;;6.40;5.73;;;19.50;48.20;;;;;;5091828;28;20202;-32
2022/05/18 05:02:27;;;;;;;10.68;7.50;;;19.60;48.20;;;;;;5091931;28;20176;-32
2022/05/18 05:04:54;;;;;;;7.43;6.38;;;19.70;47.60;;;;;;5091714;28;20206;-32
2022/05/18 05:07:19;;;;;;;8.32;6.70;;;19.70;47.40;;;;;;5091510;28;20160;-32
2022/05/18 05:09:45;;;;;;;7.70;6.90;;;19.80;47.40;;;;;;5091984;28;20178;-32
2022/05/18 05:12:11;;;;;;;7.47;6.20;;;19.90;47.20;;;;;;5091927;28;20215;-32
2022/05/18 05:14:38;;;;;;;7.82;6.00;;;19.90;47.30;;;;;;5091657;28;20196;-32
2022/05/18 05:17:05;;;;;;;9.90;5.88;;;20.00;47.80;;;;;;5091454;28;20182;-32
2022/05/18 05:19:30;;;;;;;7.18;6.40;;;20.00;46.90;;;;;;5092304;28;20196;-32
2022/05/18 05:21:56;;;;;;;8.20;5.97;;;20.00;46.50;;;;;;5091683;28;20225;-32
2022/05/18 05:24:22;;;;;;;6.53;5.93;;;20.10;46.90;;;;;;5090357;28;20206;-32
2022/05/18 05:26:49;;;;;;;8.40;7.40;;;20.10;46.90;;;;;;5091498;28;20169;-32
2022/05/18 05:29:15;;;;;;;8.68;6.70;;;20.20;46.70;;;;;;5091678;28;20198;-32
2022/05/18 05:31:41;;;;;;;7.22;5.28;;;20.30;46.60;;;;;;5091600;28;20183;-32
2022/05/18 05:34:07;;;;;;;5.53;4.50;;;20.80;46.70;;;;;;5091634;28;20529;-32
2022/05/18 05:36:33;;;;;;;7.80;6.83;;;20.40;46.50;;;;;;5091453;28;20658;-32
2022/05/18 05:38:59;;;;;;;7.55;6.60;;;20.40;45.90;;;;;;5091422;28;20168;-32
2022/05/18 05:41:27;;;;;;;14.87;6.83;;;20.50;46.30;;;;;;5091889;28;20207;-32
2022/05/18 05:43:56;;;;;;;7.20;6.00;;;20.50;45.90;;;;;;5095086;28;20698;-32
2022/05/18 05:46:23;;;;;;;10.75;6.95;;;20.60;45.80;;;;;;5094972;28;20191;-32
2022/05/18 05:48:49;;;;;;;7.05;6.10;;;20.70;45.70;;;;;;5095073;28;20175;-32
2022/05/18 05:51:16;;;;;;;8.37;5.33;;;20.70;45.70;;;;;;5094824;28;20263;-32
2022/05/18 05:53:44;;;;;;;6.75;5.38;;;20.80;45.70;;;;;;5094861;28;20207;-32
2022/05/18 05:56:11;;;;;;;8.90;6.85;;;20.80;45.80;;;;;;5095094;28;20186;-32
2022/05/18 05:58:38;;;;;;;5.72;5.20;;;20.90;45.60;;;;;;5094702;28;20182;-32
2022/05/18 06:01:07;;;;;;;6.97;6.27;;;21.00;45.50;;;;;;5094704;28;20207;-32
2022/05/18 06:03:33;;;;;;;8.10;6.07;;;21.00;45.40;;;;;;5094954;28;20478;-32
2022/05/18 06:06:00;;;;;;;6.10;5.50;;;21.10;45.10;;;;;;5094801;28;20457;-32
2022/05/18 06:08:26;;;;;;;8.60;5.33;;;21.10;45.20;;;;;;5094532;28;20447;-32
2022/05/18 06:10:53;;;;;;;5.88;4.60;;;21.10;44.90;;;;;;5094770;28;20414;-32
2022/05/18 06:13:18;;;;;;;5.90;5.40;;;21.10;44.10;;;;;;5094551;28;20538;-32
2022/05/18 06:15:44;;;;;;;8.50;4.37;;;21.10;44.30;;;;;;5094905;28;20266;-32
2022/05/18 06:18:10;;;;;;;5.37;4.50;;;21.20;44.20;;;;;;5094314;28;20410;-32
2022/05/18 06:20:36;;;;;;;5.67;5.13;;;21.20;44.10;;;;;;5094287;28;20445;-32
2022/05/18 06:23:06;;;;;;;5.70;5.10;;;21.30;44.10;;;;;;5094521;28;20192;-32
2022/05/18 06:25:33;;;;;;;9.53;5.23;;;21.30;44.00;;;;;;5094592;28;20493;-32
2022/05/18 06:27:58;;;;;;;6.67;5.30;;;21.40;44.00;;;;;;5094121;28;20402;-32
2022/05/18 06:30:24;;;;;;;5.57;4.80;;;21.60;44.00;;;;;;5094536;28;20769;-32
2022/05/18 06:32:50;;;;;;;7.60;4.75;;;21.70;44.00;;;;;;5094364;28;20249;-32
2022/05/18 06:35:17;;;;;;;5.67;4.30;;;21.80;43.60;;;;;;5094203;28;20180;-32
2022/05/18 06:37:43;;;;;;;5.27;4.77;;;21.90;42.70;;;;;;5093772;28;20531;-32
2022/05/18 06:40:10;;;;;;;5.70;5.10;;;22.00;42.50;;;;;;5094104;28;20442;-32
2022/05/18 06:42:35;;;;;;;5.97;4.60;;;22.10;42.60;;;;;;5093849;28;20172;-32
2022/05/18 06:45:03;;;;;;;7.43;4.17;;;22.20;42.60;;;;;;5094037;28;20740;-32
2022/05/18 06:47:30;;;;;;;6.50;5.60;;;22.30;42.00;;;;;;5093916;28;20172;-32
2022/05/18 06:49:56;;;;;;;6.10;5.40;;;22.40;41.50;;;;;;5094051;28;20875;-32
2022/05/18 06:52:21;;;;;;;5.33;4.70;;;22.50;41.80;;;;;;5093724;28;20422;-32
2022/05/18 06:54:48;;;;;;;5.37;3.97;;;22.50;41.70;;;;;;5093668;28;20449;-32
2022/05/18 06:57:15;;;;;;;6.70;4.87;;;22.60;42.10;;;;;;5094019;28;20167;-32
2022/05/18 06:59:40;;;;;;;7.13;4.17;;;22.80;40.80;;;;;;5093613;28;21031;-32
2022/05/18 07:02:07;;;;;;;5.80;4.30;;;22.80;40.50;;;;;;5093815;28;20489;-32
2022/05/18 07:04:33;;;;;;;4.23;3.67;;;22.80;40.40;;;;;;5093609;28;20268;-32
2022/05/18 07:07:00;;;;;;;5.27;4.10;;;22.90;39.80;;;;;;5093417;28;20458;-32
2022/05/18 07:09:27;;;;;;;5.70;3.70;;;23.00;39.40;;;;;;5093627;28;20406;-32
2022/05/18 07:11:53;;;;;;;5.70;3.93;;;23.10;39.80;;;;;;5093369;28;20902;-32
2022/05/18 07:14:23;;;;;;;6.37;4.10;;;23.20;39.30;;;;;;5093548;28;20434;-32
2022/05/18 07:16:49;;;;;;;7.10;4.20;;;23.30;39.80;;;;;;5093266;28;20398;-32
2022/05/18 07:19:17;;;;;;;5.07;4.03;;;23.40;38.90;;;;;;5093196;28;20410;-32
2022/05/18 07:21:43;;;;;;;8.23;5.10;;;23.50;39.50;;;;;;5093378;28;20406;-32
2022/05/18 07:24:09;;;;;;;4.30;3.70;;;23.50;40.00;;;;;;5093168;28;20461;-32
2022/05/18 07:26:36;;;;;;;6.47;4.20;;;23.60;39.70;;;;;;5093092;28;20882;-32
2022/05/18 07:29:03;;;;;;;5.00;3.73;;;23.70;39.10;;;;;;5093267;28;20406;-32
2022/05/18 07:31:31;;;;;;;4.23;3.83;;;23.70;38.70;;;;;;5093180;28;20524;-32
2022/05/18 07:33:56;;;;;;;5.17;3.90;;;23.80;39.20;;;;;;5092848;28;20457;-32
2022/05/18 07:36:23;;;;;;;12.30;4.63;;;23.90;39.30;;;;;;5112785;22;20499;-32
2022/05/18 07:38:49;;;;;;;4.03;3.70;;;23.90;38.50;;;;;;5092546;28;20408;-32
2022/05/18 07:41:17;;;;;;;5.57;4.53;;;24.10;39.20;;;;;;5092856;28;20487;-31
2022/05/18 07:43:43;;;;;;;6.80;4.43;;;24.20;39.40;;;;;;5093093;28;20488;-32
2022/05/18 07:46:10;;;;;;;5.50;4.20;;;24.30;38.70;;;;;;5092748;28;20492;-31
2022/05/18 07:48:37;;;;;;;4.70;4.03;;;24.30;38.10;;;;;;5092471;28;20398;-32
2022/05/18 07:51:03;;;;;;;4.70;3.90;;;24.40;38.60;;;;;;5093018;28;20575;-32
2022/05/18 07:53:29;;;;;;;5.83;3.97;;;24.50;37.30;;;;;;5092774;28;20467;-32
2022/05/18 07:55:55;;;;;;;6.20;4.97;;;24.50;37.50;;;;;;5092683;28;20901;-31
2022/05/18 07:58:22;;;;;;;6.07;4.13;;;24.60;38.00;;;;;;5092334;28;20196;-33
2022/05/18 08:00:49;;;;;;;6.70;5.20;;;24.70;37.90;;;;;;5092478;28;20529;-33
2022/05/18 08:03:16;;;;;;;4.77;4.10;;;24.80;38.30;;;;;;5092605;28;20893;-32
2022/05/18 08:05:43;;;;;;;7.10;5.90;;;24.90;37.90;;;;;;5092317;28;20402;-33
2022/05/18 08:08:13;;;;;;;5.50;4.17;;;25.00;38.40;;;;;;5092460;28;20440;-33
2022/05/18 08:16:09;;;;;;;5.50;4.40;;;25.20;37.00;;;;;;5092556;28;20405;-33
2022/05/18 08:18:35;;;;;;;4.23;3.80;;;25.30;36.00;;;;;;5092434;28;20529;-33
2022/05/18 08:21:01;;;;;;;7.70;4.67;;;25.30;36.50;;;;;;5092481;28;20957;-33
2022/05/18 08:23:27;;;;;;;5.50;4.40;;;25.40;36.20;;;;;;5092768;28;20612;-32
2022/05/18 08:25:56;;;;;;;5.70;4.17;;;25.40;36.60;;;;;;5092363;28;20398;-33
2022/05/18 08:28:22;;;;;;;5.27;4.20;;;25.50;36.50;;;;;;5091935;28;20430;-33
2022/05/18 08:30:48;;;;;;;5.80;4.67;;;25.60;36.90;;;;;;5092361;28;20402;-33
2022/05/18 08:33:14;;;;;;;5.33;4.37;;;25.70;36.80;;;;;;5092324;28;20414;-33
2022/05/18 08:35:40;;;;;;;6.20;4.37;;;25.80;36.80;;;;;;5092167;28;20402;-33
2022/05/18 08:38:07;;;;;;;5.97;4.37;;;25.90;35.50;;;;;;5091760;28;20446;-33
2022/05/18 08:40:49;;;;;;;8.13;4.63;;;25.90;36.00;;;;;;5092046;28;20794;-33
2022/05/18 08:43:33;;;;;;;5.40;4.40;;;25.90;34.40;;;;;;5092340;28;20393;-33
2022/05/18 08:46:29;;;;;;;5.23;4.73;;;25.70;34.90;;;;;;5092279;28;20401;-33
2022/05/18 08:49:12;;;;;;;5.00;4.50;;;25.70;35.70;;;;;;5092033;28;20386;-32
2022/05/18 08:52:14;;;;;;;5.80;4.63;;;25.90;36.00;;;;;;5091964;28;20770;-32
2022/05/18 08:54:49;;;;;;;4.50;3.37;;;26.10;36.80;;;;;;5092027;28;20397;-33
2022/05/18 08:57:28;;;;;;;4.50;3.60;;;26.30;35.80;;;;;;5091604;28;20413;-32
2022/05/18 08:59:59;;;;;;;4.17;3.53;;;26.20;35.10;;;;;;5091848;28;20489;-33
2022/05/18 09:02:29;;;;;;;9.10;3.83;;;26.30;34.40;;;;;;5092000;28;20762;-32
2022/05/18 09:05:10;;;;;;;6.87;4.33;;;26.40;33.50;;;;;;5091935;28;20790;-32
2022/05/18 09:08:08;;;;;;;8.30;4.57;;;26.50;34.40;;;;;;5092284;28;20497;-32
2022/05/18 09:10:39;;;;;;;5.10;4.30;;;26.60;35.10;;;;;;5091108;28;20410;-32
2022/05/18 09:13:05;;;;;;;4.40;3.43;;;26.60;33.70;;;;;;5091939;28;20786;-33
2022/05/18 09:15:39;;;;;;;5.27;3.47;;;26.60;34.00;;;;;;5092651;28;20471;-32
2022/05/18 09:18:12;;;;;;;4.60;3.43;;;26.80;34.60;;;;;;5095429;28;20425;-32
2022/05/18 09:20:58;;;;;;;5.73;4.10;;;26.90;35.00;;;;;;5095723;28;20983;-33
2022/05/18 09:23:31;;;;;;;5.10;3.10;;;27.20;33.00;;;;;;5095870;28;20394;-32
2022/05/18 09:26:22;;;;;;;6.20;3.23;;;27.20;33.80;;;;;;5095734;28;20394;-32
2022/05/18 09:28:53;;;;;;;5.30;4.10;;;27.20;32.10;;;;;;5095268;28;20465;-32
2022/05/18 09:31:39;;;;;;;3.43;2.90;;;27.30;31.40;;;;;;5095522;28;20409;-32
2022/05/18 09:34:28;;;;;;;3.13;2.30;;;27.30;30.40;;;;;;5095598;28;20409;-33
2022/05/18 09:37:20;;;;;;;4.30;2.87;;;27.30;31.00;;;;;;5096153;28;20450;-33
2022/05/18 09:39:58;;;;;;;3.43;3.07;;;27.40;31.40;;;;;;5094800;28;20453;-33
2022/05/18 09:42:30;;;;;;;5.70;3.83;;;27.40;31.70;;;;;;5095286;28;20912;-33
2022/05/18 09:45:13;;;;;;;2.97;2.40;;;27.40;30.50;;;;;;5093943;28;20496;-33
2022/05/18 09:47:53;;;;;;;2.90;2.60;;;27.40;30.70;;;;;;5094947;28;20471;-32
2022/05/18 09:50:19;;;;;;;5.40;3.53;;;27.50;29.80;;;;;;5095443;28;20405;-33
2022/05/18 09:52:47;;;;;;;3.27;2.83;;;27.60;29.40;;;;;;5095179;28;20771;-33
2022/05/18 09:55:17;;;;;;;9.43;2.60;;;27.70;29.60;;;;;;5095089;28;20413;-34
2022/05/18 09:57:59;;;;;;;3.40;2.30;;;27.70;27.80;;;;;;5094982;28;20432;-34
2022/05/18 10:00:29;;;;;;;5.50;3.63;;;27.50;25.40;;;;;;5095052;28;20454;-33
2022/05/18 10:08:44;;;;;;;2.90;2.47;;;27.70;29.50;;;;;;5095121;28;20421;-32
2022/05/18 10:11:20;;;;;;;3.40;2.60;;;27.90;28.00;;;;;;5094750;28;20402;-33
2022/05/18 10:14:11;;;;;;;3.53;2.77;;;27.90;28.20;;;;;;5093471;28;20466;-33
2022/05/18 10:16:47;;;;;;;4.77;3.13;;;28.00;28.40;;;;;;5094409;28;20418;-32
2022/05/18 10:19:48;;;;;;;3.33;3.03;;;28.00;27.70;;;;;;5094765;28;20444;-33
2022/05/18 10:22:24;;;;;;;4.33;3.47;;;28.10;29.20;;;;;;5080440;28;20444;-34
2022/05/18 10:25:22;;;;;;;7.43;4.30;;;28.10;28.80;;;;;;5094520;28;20398;-32
2022/05/18 10:27:49;;;;;;;4.57;3.00;;;28.20;28.20;;;;;;5093507;28;20825;-32
2022/05/18 10:30:16;;;;;;;5.13;3.43;;;28.20;27.50;;;;;;5094459;28;20402;-34
2022/05/18 10:33:01;;;;;;;4.97;3.17;;;28.20;28.00;;;;;;5094341;28;20902;-34
2022/05/18 10:35:44;;;;;;;5.20;3.33;;;28.20;27.70;;;;;;5094397;28;20920;-34
2022/05/18 10:38:28;;;;;;;3.20;2.90;;;28.30;28.10;;;;;;5094101;28;20537;-32
2022/05/18 10:41:09;;;;;;;6.03;3.87;;;28.30;28.80;;;;;;5094069;28;20456;-34
2022/05/18 10:43:44;;;;;;;4.80;3.53;;;28.30;28.90;;;;;;5093953;28;20483;-33
2022/05/18 10:46:16;;;;;;;7.50;3.83;;;28.40;29.40;;;;;;5093975;28;20405;-33
2022/05/18 10:48:53;;;;;;;3.53;3.10;;;28.50;28.10;;;;;;5093856;28;20422;-32
2022/05/18 10:51:38;;;;;;;4.90;3.83;;;28.60;28.00;;;;;;5094055;28;20912;-33
2022/05/18 10:54:28;;;;;;;3.87;3.23;;;28.60;27.80;;;;;;5092490;28;20966;-34
2022/05/18 10:57:19;;;;;;;3.93;3.63;;;28.60;27.10;;;;;;5093567;28;20418;-33
2022/05/18 10:59:54;;;;;;;3.73;2.60;;;28.60;27.90;;;;;;5093661;28;20442;-34
2022/05/18 11:02:29;;;;;;;4.87;3.80;;;28.60;27.70;;;;;;5093779;28;20397;-34
2022/05/18 11:05:32;;;;;;;5.80;4.37;;;28.60;27.40;;;;;;5094919;28;20400;-32
2022/05/18 11:07:58;;;;;;;4.60;3.90;;;28.50;28.10;;;;;;5092453;28;20413;-32
2022/05/18 11:10:34;;;;;;;4.33;3.50;;;28.60;29.20;;;;;;5092471;28;20451;-32
2022/05/18 11:13:08;;;;;;;5.00;4.50;;;28.80;27.80;;;;;;5092195;28;20410;-34
2022/05/18 11:15:47;;;;;;;5.90;4.23;;;28.90;27.00;;;;;;5093538;28;20889;-32
2022/05/18 11:18:31;;;;;;;4.97;3.70;;;28.90;27.20;;;;;;5091979;28;20436;-34
2022/05/18 11:21:13;;;;;;;4.93;3.70;;;28.90;27.30;;;;;;5093321;28;20480;-34
2022/05/18 11:23:48;;;;;;;5.23;3.83;;;28.90;27.40;;;;;;5093563;28;20489;-32
2022/05/18 11:26:36;;;;;;;4.77;4.10;;;28.90;26.80;;;;;;5091706;28;20409;-32
2022/05/18 11:29:08;;;;;;;4.83;3.70;;;28.90;26.80;;;;;;5093137;28;20443;-34
2022/05/18 11:32:03;;;;;;;6.90;4.30;;;28.90;26.50;;;;;;5093255;28;20402;-32
2022/05/18 11:34:29;;;;;;;5.43;3.90;;;28.90;26.60;;;;;;5093227;28;20493;-34
2022/05/18 11:37:03;;;;;;;5.70;4.33;;;29.00;27.70;;;;;;5091507;28;20587;-33
2022/05/18 11:40:17;;;;;;;5.73;3.90;;;29.10;26.10;;;;;;5092675;28;20198;-32
2022/05/18 11:42:43;;;;;;;6.13;4.13;;;29.10;26.40;;;;;;5020630;28;20820;-33
2022/05/18 11:45:25;;;;;;;5.97;4.60;;;29.10;27.30;;;;;;5094348;28;20402;-32
2022/05/18 11:48:24;;;;;;;5.23;4.60;;;29.10;25.80;;;;;;5092685;28;20195;-34
2022/05/18 11:50:59;;;;;;;5.97;4.83;;;29.00;26.80;;;;;;5092969;28;20723;-32
2022/05/18 11:53:59;;;;;;;6.07;4.63;;;29.00;26.00;;;;;;5092971;28;20428;-33
2022/05/18 11:56:30;;;;;;;6.83;4.30;;;29.00;27.10;;;;;;5093078;28;20429;-34
2022/05/18 11:59:45;;;;;;;6.30;5.17;;;29.00;27.10;;;;;;5093601;28;20501;-33
2022/05/18 12:02:14;;;;;;;5.43;4.87;;;29.00;26.50;;;;;;5092796;28;20481;-32
2022/05/18 12:04:59;;;;;;;5.10;4.10;;;29.00;27.10;;;;;;5091247;28;20567;-33
2022/05/18 12:07:57;;;;;;;7.03;4.43;;;29.10;26.40;;;;;;5093168;28;20425;-33
2022/05/18 12:10:34;;;;;;;6.00;4.03;;;29.10;26.20;;;;;;5092541;28;20804;-34
2022/05/18 12:13:16;;;;;;;5.43;4.50;;;29.10;27.10;;;;;;5092639;28;20449;-34
2022/05/18 12:15:56;;;;;;;4.47;4.07;;;29.20;26.70;;;;;;5094007;28;20395;-34
2022/05/18 12:18:35;;;;;;;5.80;5.20;;;29.20;26.60;;;;;;5092426;28;20418;-34
2022/05/18 12:21:09;;;;;;;5.17;4.13;;;29.20;26.80;;;;;;5092496;28;20960;-34
2022/05/18 12:23:42;;;;;;;6.50;4.50;;;29.30;26.50;;;;;;5092643;28;20433;-33
2022/05/18 12:26:08;;;;;;;5.70;3.67;;;29.40;26.20;;;;;;5092209;28;20815;-34
2022/05/18 12:28:34;;;;;;;4.50;4.10;;;29.50;25.60;;;;;;5093043;28;20416;-34
2022/05/18 12:31:00;;;;;;;6.03;4.30;;;29.50;25.80;;;;;;5092716;28;20173;-33
2022/05/18 12:33:27;;;;;;;4.70;3.70;;;29.40;25.80;;;;;;5092403;28;20467;-32
2022/05/18 12:36:16;;;;;;;5.80;4.77;;;29.40;27.10;;;;;;5092231;28;20405;-33
2022/05/18 12:39:09;;;;;;;5.90;4.83;;;29.50;27.00;;;;;;5092787;28;20466;-34
2022/05/18 12:41:40;;;;;;;4.97;4.47;;;29.60;27.00;;;;;;5092601;28;20537;-32
2022/05/18 12:44:10;;;;;;;6.03;5.20;;;29.60;27.10;;;;;;5092483;28;20492;-34
2022/05/18 12:46:45;;;;;;;8.50;5.27;;;29.70;26.90;;;;;;5092306;28;20509;-34
2022/05/18 12:49:30;;;;;;;4.60;4.03;;;29.90;27.30;;;;;;5092512;28;20422;-34
2022/05/18 12:52:12;;;;;;;5.20;4.50;;;29.90;26.20;;;;;;5095894;28;20762;-34
2022/05/18 12:54:43;;;;;;;4.87;4.17;;;29.90;25.80;;;;;;5096612;28;20405;-33
2022/05/18 12:57:21;;;;;;;7.30;4.20;;;30.00;26.60;;;;;;5096141;28;20449;-34
2022/05/18 13:00:01;;;;;;;6.73;5.70;;;30.00;26.40;;;;;;5096289;28;20806;-34
2022/05/18 13:02:48;;;;;;;5.93;4.43;;;30.00;25.40;;;;;;5096266;28;20807;-34
2022/05/18 13:05:41;;;;;;;7.47;4.80;;;30.00;26.70;;;;;;5096628;28;20406;-34
2022/05/18 13:08:37;;;;;;;5.57;4.20;;;30.10;24.00;;;;;;5093834;28;20436;-34
2022/05/18 13:11:08;;;;;;;5.00;3.60;;;29.90;25.50;;;;;;5096188;28;20463;-34
2022/05/18 13:13:54;;;;;;;8.03;4.87;;;29.90;25.10;;;;;;5096450;28;20421;-33
2022/05/18 13:16:40;;;;;;;7.30;4.83;;;29.90;25.90;;;;;;5096418;28;20414;-33
2022/05/18 13:19:19;;;;;;;5.83;5.17;;;29.90;25.90;;;;;;5096069;28;20409;-34
2022/05/18 13:22:07;;;;;;;5.40;3.73;;;29.90;25.80;;;;;;5096668;28;20402;-34
2022/05/18 13:24:39;;;;;;;5.10;4.60;;;29.90;25.50;;;;;;5095570;28;20505;-32
2022/05/18 13:27:20;;;;;;;6.03;4.70;;;29.90;26.10;;;;;;5095487;28;20410;-34